createdAt,value
2019-05-03T05:36:45.924Z,986.65
2019-05-03T05:37:46.013Z,986.66
2019-05-03T05:38:46.102Z,986.67
2019-05-03T05:39:46.198Z,986.68
2019-05-03T05:40:46.289Z,986.68
2019-05-03T05:41:46.378Z,986.74
2019-05-03T05:42:46.470Z,986.76
2019-05-03T05:43:46.559Z,986.79
2019-05-03T05:44:46.648Z,986.80
2019-05-03T05:45:46.739Z,986.80
2019-05-03T05:46:46.833Z,986.81
2019-05-03T05:47:46.926Z,986.85
2019-05-03T05:48:47.017Z,986.83
2019-05-03T05:49:47.107Z,986.83
2019-05-03T05:50:47.201Z,986.80
2019-05-03T05:51:47.294Z,986.82
2019-05-03T05:52:47.385Z,986.85
2019-05-03T05:53:47.480Z,986.83
2019-05-03T05:54:47.570Z,986.89
2019-05-03T05:55:47.663Z,986.86
2019-05-03T05:56:47.759Z,986.87
2019-05-03T05:57:47.848Z,986.86
2019-05-03T05:58:47.941Z,986.91
2019-05-03T05:59:48.033Z,986.91
2019-05-03T06:00:48.125Z,986.90
2019-05-03T06:01:48.216Z,987.02
2019-05-03T06:02:48.311Z,987.05
2019-05-03T06:03:48.399Z,987.12
2019-05-03T06:04:48.492Z,987.14
2019-05-03T06:05:48.585Z,987.17
2019-05-03T06:06:48.683Z,987.14
2019-05-03T06:07:48.771Z,987.19
2019-05-03T06:08:48.875Z,987.19
2019-05-03T06:09:48.967Z,987.15
2019-05-03T06:10:49.064Z,987.19
2019-05-03T06:11:49.152Z,987.20
2019-05-03T06:12:49.242Z,987.27
2019-05-03T06:13:49.332Z,987.26
2019-05-03T06:14:49.428Z,987.32
2019-05-03T06:15:49.517Z,987.32
2019-05-03T06:16:49.610Z,987.36
2019-05-03T06:17:49.699Z,987.37
2019-05-03T06:18:49.790Z,987.39
2019-05-03T06:19:49.881Z,987.42
2019-05-03T06:20:49.973Z,987.39
2019-05-03T06:21:50.072Z,987.43
2019-05-03T06:22:50.157Z,987.49
2019-05-03T06:23:50.248Z,987.48
2019-05-03T06:24:50.341Z,987.56
2019-05-03T06:25:50.430Z,987.58
2019-05-03T06:26:50.524Z,987.57
2019-05-03T06:27:50.612Z,987.58
2019-05-03T06:28:50.706Z,987.60
2019-05-03T06:29:50.804Z,987.64
2019-05-03T06:30:50.887Z,987.66
2019-05-03T06:31:50.976Z,987.63
2019-05-03T06:32:51.069Z,987.68
2019-05-03T06:33:52.557Z,987.69
2019-05-03T06:34:51.253Z,987.68
2019-05-03T06:35:51.340Z,987.73
2019-05-03T06:36:51.646Z,987.71
2019-05-03T06:37:51.521Z,987.71
2019-05-03T06:38:51.612Z,987.69
2019-05-03T06:39:51.703Z,987.71
2019-05-03T06:40:51.794Z,987.71
2019-05-03T06:41:51.885Z,987.73
2019-05-03T06:42:54.924Z,987.74
2019-05-03T06:43:52.071Z,987.75
2019-05-03T06:44:54.113Z,987.79
2019-05-03T06:45:52.250Z,987.78
2019-05-03T06:46:52.344Z,987.82
2019-05-03T06:47:52.433Z,987.82
2019-05-03T06:48:54.235Z,987.80
2019-05-03T06:49:52.617Z,987.81
2019-05-03T06:50:52.710Z,987.82
2019-05-03T06:51:54.584Z,987.84
2019-05-03T06:52:54.690Z,987.85
2019-05-03T06:53:54.682Z,987.85
2019-05-03T06:54:55.226Z,987.87
2019-05-03T06:55:55.290Z,987.85
2019-05-03T06:56:55.362Z,987.88
2019-05-03T06:57:54.558Z,987.88
2019-05-03T06:58:54.859Z,987.85
2019-05-03T06:59:55.028Z,987.87
2019-05-03T07:00:55.326Z,987.86
2019-05-03T07:01:55.233Z,987.85
2019-05-03T07:02:54.591Z,987.87
2019-05-03T07:03:54.874Z,987.85
2019-05-03T07:04:56.102Z,987.82
2019-05-03T07:05:54.907Z,987.80
2019-05-03T07:06:55.135Z,987.83
2019-05-03T07:07:54.757Z,987.83
2019-05-03T07:08:54.967Z,987.80
2019-05-03T07:09:54.709Z,987.81
2019-05-03T07:10:55.004Z,987.83
2019-05-03T07:11:55.514Z,987.84
2019-05-03T07:12:54.810Z,987.85
2019-05-03T07:13:55.047Z,987.88
2019-05-03T07:14:54.921Z,987.87
2019-05-03T07:15:56.030Z,987.90
2019-05-03T07:16:55.371Z,987.94
2019-05-03T07:17:55.667Z,987.90
2019-05-03T07:18:58.097Z,987.96
2019-05-03T07:19:55.393Z,987.95
2019-05-03T07:20:57.044Z,987.95
2019-05-03T07:21:55.577Z,987.96
2019-05-03T07:22:56.007Z,987.92
2019-05-03T07:23:55.762Z,987.95
2019-05-03T07:24:55.854Z,987.93
2019-05-03T07:25:55.946Z,987.98
2019-05-03T07:26:58.933Z,987.96
2019-05-03T07:27:56.135Z,987.97
2019-05-03T07:28:56.217Z,987.99
2019-05-03T07:29:56.309Z,988.01
2019-05-03T07:30:56.407Z,988.01
2019-05-03T07:31:56.501Z,987.98
2019-05-03T07:32:56.593Z,987.99
2019-05-03T07:33:56.690Z,988.02
2019-05-03T07:34:56.783Z,987.94
2019-05-03T07:35:56.876Z,987.96
2019-05-03T07:36:56.970Z,987.96
2019-05-03T07:37:57.059Z,987.96
2019-05-03T07:38:57.150Z,987.94
2019-05-03T07:39:57.243Z,987.97
2019-05-03T07:40:57.338Z,987.93
2019-05-03T07:41:57.431Z,987.88
2019-05-03T07:42:57.519Z,987.92
2019-05-03T07:43:57.610Z,988.00
2019-05-03T07:44:57.706Z,987.96
2019-05-03T07:45:57.796Z,987.98
2019-05-03T07:46:57.888Z,988.00
2019-05-03T07:47:57.990Z,987.94
2019-05-03T07:48:58.072Z,987.94
2019-05-03T07:49:58.189Z,987.95
2019-05-03T07:50:58.261Z,987.99
2019-05-03T07:51:58.353Z,987.95
2019-05-03T07:52:58.443Z,988.02
2019-05-03T07:53:58.538Z,987.98
2019-05-03T07:54:58.638Z,987.99
2019-05-03T07:55:58.719Z,988.00
2019-05-03T07:56:58.810Z,987.98
2019-05-03T07:57:58.897Z,987.99
2019-05-03T07:59:03.002Z,987.99
2019-05-03T07:59:59.141Z,988.00
2019-05-03T08:01:06.222Z,988.02
2019-05-03T08:01:59.265Z,988.02
2019-05-03T08:02:59.360Z,988.03
2019-05-03T08:03:59.450Z,988.03
2019-05-03T08:04:59.541Z,988.03
2019-05-03T08:05:59.637Z,988.05
2019-05-03T08:06:59.726Z,988.05
2019-05-03T08:07:59.820Z,988.03
2019-05-03T08:08:59.909Z,988.03
2019-05-03T08:10:00.003Z,988.01
2019-05-03T08:11:00.094Z,988.04
2019-05-03T08:12:00.191Z,988.09
2019-05-03T08:13:00.280Z,987.99
2019-05-03T08:14:00.371Z,988.05
2019-05-03T08:15:00.463Z,987.96
2019-05-03T08:16:00.554Z,987.94
2019-05-03T08:17:00.642Z,987.96
2019-05-03T08:18:00.735Z,987.92
2019-05-03T08:19:00.826Z,987.98
2019-05-03T08:20:00.924Z,988.02
2019-05-03T08:21:01.021Z,987.97
2019-05-03T08:22:01.104Z,988.02
2019-05-03T08:23:01.216Z,987.98
2019-05-03T08:24:01.308Z,988.02
2019-05-03T08:25:01.404Z,987.95
2019-05-03T08:26:01.501Z,987.93
2019-05-03T08:27:01.591Z,987.89
2019-05-03T08:28:01.677Z,988.03
2019-05-03T08:29:13.327Z,988.06
2019-05-03T08:30:01.865Z,987.99
2019-05-03T08:31:01.957Z,987.93
2019-05-03T08:32:02.051Z,987.94
2019-05-03T08:33:02.142Z,987.87
2019-05-03T08:34:02.238Z,987.89
2019-05-03T08:35:02.329Z,987.91
2019-05-03T08:36:04.739Z,987.86
2019-05-03T08:37:02.520Z,987.89
2019-05-03T08:38:02.617Z,987.91
2019-05-03T08:39:02.731Z,987.90
2019-05-03T08:40:02.803Z,987.90
2019-05-03T08:41:02.896Z,987.87
2019-05-03T08:42:04.811Z,987.85
2019-05-03T08:43:05.034Z,987.80
2019-05-03T08:44:05.126Z,987.85
2019-05-03T08:45:04.517Z,987.85
2019-05-03T08:46:04.608Z,987.87
2019-05-03T08:47:05.192Z,987.84
2019-05-03T08:48:05.399Z,987.87
2019-05-03T08:49:05.214Z,987.84
2019-05-03T08:50:05.474Z,987.80
2019-05-03T08:51:04.596Z,987.77
2019-05-03T08:52:05.432Z,987.80
2019-05-03T08:53:05.086Z,987.75
2019-05-03T08:54:04.750Z,987.68
2019-05-03T08:55:05.255Z,987.73
2019-05-03T08:56:05.312Z,987.72
2019-05-03T08:57:06.244Z,987.72
2019-05-03T08:58:05.230Z,987.74
2019-05-03T08:59:04.783Z,987.67
2019-05-03T09:00:05.283Z,987.68
2019-05-03T09:01:05.487Z,987.71
2019-05-03T09:02:14.132Z,987.67
2019-05-03T09:03:05.297Z,987.66
2019-05-03T09:04:05.193Z,987.67
2019-05-03T09:05:05.230Z,987.64
2019-05-03T09:06:05.209Z,987.66
2019-05-03T09:07:05.578Z,987.68
2019-05-03T09:08:05.786Z,987.66
2019-05-03T09:09:05.497Z,987.69
2019-05-03T09:10:05.617Z,987.65
2019-05-03T09:11:12.904Z,987.67
2019-05-03T09:12:05.750Z,987.62
2019-05-03T09:13:06.478Z,987.65
2019-05-03T09:14:05.944Z,987.69
2019-05-03T09:15:06.038Z,987.62
2019-05-03T09:16:06.148Z,987.54
2019-05-03T09:17:06.225Z,987.56
2019-05-03T09:18:06.330Z,987.49
2019-05-03T09:19:06.409Z,987.57
2019-05-03T09:20:06.506Z,987.60
2019-05-03T09:21:06.601Z,987.54
2019-05-03T09:22:06.728Z,987.55
2019-05-03T09:23:06.783Z,987.50
2019-05-03T09:24:06.886Z,987.53
2019-05-03T09:25:06.966Z,987.54
2019-05-03T09:26:07.062Z,987.51
2019-05-03T09:27:07.167Z,987.54
2019-05-03T09:28:07.264Z,987.50
2019-05-03T09:29:07.357Z,987.51
2019-05-03T09:30:07.446Z,987.47
2019-05-03T09:31:07.559Z,987.50
2019-05-03T09:32:07.656Z,987.46
2019-05-03T09:33:09.208Z,987.51
2019-05-03T09:34:08.401Z,987.57
2019-05-03T09:35:07.931Z,987.57
2019-05-03T09:36:08.024Z,987.55
2019-05-03T09:37:08.112Z,987.57
2019-05-03T09:38:08.211Z,987.58
2019-05-03T09:39:08.308Z,987.54
2019-05-03T09:40:08.387Z,987.52
2019-05-03T09:41:08.519Z,987.51
2019-05-03T09:42:08.576Z,987.53
2019-05-03T09:43:08.662Z,987.60
2019-05-03T09:44:08.757Z,987.60
2019-05-03T09:45:08.849Z,987.55
2019-05-03T09:46:08.937Z,987.54
2019-05-03T09:47:09.039Z,987.52
2019-05-03T09:48:09.132Z,987.51
2019-05-03T09:49:13.220Z,987.45
2019-05-03T09:50:09.320Z,987.47
2019-05-03T09:51:09.414Z,987.56
2019-05-03T09:52:09.504Z,987.55
2019-05-03T09:53:09.595Z,987.59
2019-05-03T09:54:09.698Z,987.59
2019-05-03T09:55:09.792Z,987.65
2019-05-03T09:56:09.890Z,987.63
2019-05-03T09:57:09.973Z,987.62
2019-05-03T09:58:10.072Z,987.66
2019-05-03T09:59:10.163Z,987.62
2019-05-03T10:00:10.258Z,987.65
2019-05-03T10:01:10.357Z,987.61
2019-05-03T10:02:10.451Z,987.62
2019-05-03T10:03:10.547Z,987.62
2019-05-03T10:04:10.633Z,987.63
2019-05-03T10:05:10.735Z,987.68
2019-05-03T10:06:10.822Z,987.62
2019-05-03T10:07:10.916Z,987.60
2019-05-03T10:08:11.012Z,987.59
2019-05-03T10:09:11.105Z,987.60
2019-05-03T10:10:11.206Z,987.66
2019-05-03T10:11:11.287Z,987.55
2019-05-03T10:12:11.389Z,987.58
2019-05-03T10:13:15.045Z,987.52
2019-05-03T10:14:11.581Z,987.57
2019-05-03T10:15:11.677Z,987.59
2019-05-03T10:16:11.787Z,987.59
2019-05-03T10:17:11.866Z,987.59
2019-05-03T10:18:11.962Z,987.59
2019-05-03T10:19:14.313Z,987.59
2019-05-03T10:20:12.159Z,987.56
2019-05-03T10:21:14.658Z,987.60
2019-05-03T10:22:12.318Z,987.55
2019-05-03T10:23:12.413Z,987.56
2019-05-03T10:24:12.497Z,987.57
2019-05-03T10:25:12.604Z,987.60
2019-05-03T10:26:14.691Z,987.59
2019-05-03T10:27:12.778Z,987.58
2019-05-03T10:28:12.890Z,987.56
2019-05-03T10:29:15.113Z,987.57
2019-05-03T10:30:14.472Z,987.59
2019-05-03T10:31:13.159Z,987.66
2019-05-03T10:32:15.053Z,987.65
2019-05-03T10:33:15.530Z,987.63
2019-05-03T10:34:15.439Z,987.57
2019-05-03T10:35:15.158Z,987.57
2019-05-03T10:36:15.379Z,987.57
2019-05-03T10:37:15.157Z,987.56
2019-05-03T10:38:15.168Z,987.60
2019-05-03T10:39:15.491Z,987.68
2019-05-03T10:40:14.034Z,987.58
2019-05-03T10:41:14.143Z,987.55
2019-05-03T10:42:14.229Z,987.55
2019-05-03T10:43:14.321Z,987.57
2019-05-03T10:44:15.114Z,987.55
2019-05-03T10:45:15.259Z,987.54
2019-05-03T10:46:15.960Z,987.50
2019-05-03T10:47:14.813Z,987.50
2019-05-03T10:48:15.513Z,987.51
2019-05-03T10:49:15.404Z,987.55
2019-05-03T10:50:15.577Z,987.53
2019-05-03T10:51:15.902Z,987.57
2019-05-03T10:52:15.204Z,987.52
2019-05-03T10:53:15.469Z,987.48
2019-05-03T10:54:15.414Z,987.51
2019-05-03T10:55:15.874Z,987.50
2019-05-03T10:56:22.680Z,987.44
2019-05-03T10:57:15.997Z,987.36
2019-05-03T10:58:16.177Z,987.36
2019-05-03T10:59:15.892Z,987.30
2019-05-03T11:00:41.573Z,987.37
2019-05-03T11:01:16.082Z,987.36
2019-05-03T11:02:16.186Z,987.40
2019-05-03T11:03:16.285Z,987.43
2019-05-03T11:04:16.382Z,987.43
2019-05-03T11:05:16.476Z,987.44
2019-05-03T11:06:16.573Z,987.39
2019-05-03T11:07:16.663Z,987.40
2019-05-03T11:08:16.769Z,987.43
2019-05-03T11:09:16.860Z,987.41
2019-05-03T11:10:16.955Z,987.44
2019-05-03T11:11:17.053Z,987.44
2019-05-03T11:12:17.146Z,987.43
2019-05-03T11:13:17.242Z,987.45
2019-05-03T11:14:17.330Z,987.48
2019-05-03T11:15:17.424Z,987.48
2019-05-03T11:16:17.511Z,987.47
2019-05-03T11:17:17.619Z,987.49
2019-05-03T11:18:17.723Z,987.43
2019-05-03T11:19:17.813Z,987.45
2019-05-03T11:20:28.189Z,987.44
2019-05-03T11:21:27.942Z,987.44
2019-05-03T11:22:18.101Z,987.43
2019-05-03T11:23:18.201Z,987.48
2019-05-03T11:24:18.288Z,987.49
2019-05-03T11:25:18.376Z,987.52
2019-05-03T11:26:19.333Z,987.51
2019-05-03T11:27:18.570Z,987.50
2019-05-03T11:28:19.222Z,987.52
2019-05-03T11:29:18.766Z,987.49
2019-05-03T11:30:19.322Z,987.49
2019-05-03T11:31:18.938Z,987.48
2019-05-03T11:32:19.369Z,987.52
2019-05-03T11:33:19.142Z,987.53
2019-05-03T11:34:22.394Z,987.50
2019-05-03T11:35:19.340Z,987.53
2019-05-03T11:36:19.435Z,987.48
2019-05-03T11:37:19.521Z,987.52
2019-05-03T11:38:19.626Z,987.48
2019-05-03T11:39:19.730Z,987.46
2019-05-03T11:40:19.807Z,987.43
2019-05-03T11:41:30.303Z,987.43
2019-05-03T11:42:20.016Z,987.45
2019-05-03T11:43:20.121Z,987.44
2019-05-03T11:44:20.217Z,987.40
2019-05-03T11:45:20.311Z,987.38
2019-05-03T11:46:20.397Z,987.36
2019-05-03T11:47:20.502Z,987.44
2019-05-03T11:48:20.585Z,987.44
2019-05-03T11:49:20.679Z,987.45
2019-05-03T11:50:20.774Z,987.46
2019-05-03T11:51:20.869Z,987.44
2019-05-03T11:52:20.965Z,987.37
2019-05-03T11:53:21.053Z,987.42
2019-05-03T11:54:21.167Z,987.44
2019-05-03T11:55:21.248Z,987.47
2019-05-03T11:56:22.339Z,987.53
2019-05-03T11:57:21.439Z,987.49
2019-05-03T11:58:21.540Z,987.43
2019-05-03T11:59:21.617Z,987.45
2019-05-03T12:00:21.713Z,987.43
2019-05-03T12:01:21.797Z,987.42
2019-05-03T12:02:21.900Z,987.46
2019-05-03T12:03:22.000Z,987.46
2019-05-03T12:04:22.105Z,987.41
2019-05-03T12:05:24.350Z,987.47
2019-05-03T12:06:22.310Z,987.43
2019-05-03T12:07:36.517Z,987.46
2019-05-03T12:08:22.500Z,987.45
2019-05-03T12:09:22.596Z,987.43
2019-05-03T12:10:37.104Z,987.41
2019-05-03T12:11:24.419Z,987.38
2019-05-03T12:12:24.495Z,987.43
2019-05-03T12:13:24.562Z,987.40
2019-05-03T12:14:24.491Z,987.29
2019-05-03T12:15:23.149Z,987.46
2019-05-03T12:16:34.884Z,987.38
2019-05-03T12:17:28.552Z,987.33
2019-05-03T12:18:25.123Z,987.25
2019-05-03T12:19:30.443Z,987.29
2019-05-03T12:20:26.817Z,987.31
2019-05-03T12:21:26.456Z,987.23
2019-05-03T12:22:26.085Z,987.18
2019-05-03T12:23:25.822Z,987.20
2019-05-03T12:24:26.311Z,987.19
2019-05-03T12:25:26.143Z,987.20
2019-05-03T12:26:27.121Z,987.23
2019-05-03T12:27:24.435Z,987.27
2019-05-03T12:28:25.669Z,987.23
2019-05-03T12:29:24.669Z,987.23
2019-05-03T12:30:27.464Z,987.28
2019-05-03T12:31:36.273Z,987.32
2019-05-03T12:32:25.173Z,987.31
2019-05-03T12:33:25.991Z,987.33
2019-05-03T12:34:25.635Z,987.26
2019-05-03T12:35:25.120Z,987.31
2019-05-03T12:36:25.218Z,987.24
2019-05-03T12:37:25.305Z,987.30
2019-05-03T12:38:25.667Z,987.30
2019-05-03T12:39:29.973Z,987.28
2019-05-03T12:40:25.659Z,987.32
2019-05-03T12:41:25.706Z,987.38
2019-05-03T12:42:25.801Z,987.32
2019-05-03T12:43:25.888Z,987.36
2019-05-03T12:44:26.003Z,987.33
2019-05-03T12:45:26.076Z,987.28
2019-05-03T12:46:26.353Z,987.27
2019-05-03T12:47:26.263Z,987.31
2019-05-03T12:48:26.358Z,987.23
2019-05-03T12:49:26.453Z,987.29
2019-05-03T12:50:26.546Z,987.24
2019-05-03T12:51:26.640Z,987.26
2019-05-03T12:52:27.531Z,987.30
2019-05-03T12:53:26.832Z,987.31
2019-05-03T12:54:26.929Z,987.26
2019-05-03T12:55:27.027Z,987.25
2019-05-03T12:56:32.736Z,987.20
2019-05-03T12:57:27.224Z,987.18
2019-05-03T12:58:27.332Z,987.20
2019-05-03T12:59:27.420Z,987.12
2019-05-03T13:00:27.501Z,987.15
2019-05-03T13:01:40.257Z,987.17
2019-05-03T13:02:27.693Z,987.16
2019-05-03T13:03:27.777Z,987.14
2019-05-03T13:04:27.891Z,987.09
2019-05-03T13:05:27.988Z,987.07
2019-05-03T13:06:28.082Z,987.08
2019-05-03T13:07:28.188Z,987.14
2019-05-03T13:08:28.289Z,987.11
2019-05-03T13:09:28.374Z,987.05
2019-05-03T13:10:28.468Z,987.08
2019-05-03T13:11:28.574Z,987.05
2019-05-03T13:12:28.665Z,987.13
2019-05-03T13:13:28.762Z,987.08
2019-05-03T13:14:28.848Z,987.09
2019-05-03T13:15:28.950Z,987.11
2019-05-03T13:16:29.033Z,987.12
2019-05-03T13:17:29.136Z,987.11
2019-05-03T13:18:29.235Z,987.19
2019-05-03T13:19:29.332Z,987.17
2019-05-03T13:20:29.427Z,987.10
2019-05-03T13:21:29.522Z,987.13
2019-05-03T13:22:29.615Z,987.14
2019-05-03T13:23:29.717Z,987.13
2019-05-03T13:24:29.799Z,987.12
2019-05-03T13:25:29.899Z,987.02
2019-05-03T13:26:29.997Z,987.01
2019-05-03T13:27:30.112Z,987.01
2019-05-03T13:28:30.188Z,987.00
2019-05-03T13:29:30.278Z,987.05
2019-05-03T13:30:30.381Z,987.12
2019-05-03T13:31:30.467Z,987.04
2019-05-03T13:32:30.563Z,986.98
2019-05-03T13:33:30.663Z,986.92
2019-05-03T13:34:30.761Z,986.97
2019-05-03T13:35:30.852Z,986.94
2019-05-03T13:36:30.955Z,986.98
2019-05-03T13:37:31.057Z,986.93
2019-05-03T13:38:31.144Z,986.96
2019-05-03T13:39:31.229Z,986.92
2019-05-03T13:40:31.322Z,986.97
2019-05-03T13:41:31.431Z,986.93
2019-05-03T13:42:31.502Z,986.98
2019-05-03T13:43:31.623Z,986.95
2019-05-03T13:44:31.716Z,987.02
2019-05-03T13:45:31.805Z,986.95
2019-05-03T13:46:31.895Z,986.95
2019-05-03T13:47:32.017Z,986.96
2019-05-03T13:48:42.803Z,986.95
2019-05-03T13:49:32.179Z,986.98
2019-05-03T13:50:32.275Z,986.97
2019-05-03T13:51:32.363Z,986.91
2019-05-03T13:52:34.459Z,986.91
2019-05-03T13:53:34.683Z,986.85
2019-05-03T13:54:34.633Z,986.84
2019-05-03T13:55:32.751Z,986.88
2019-05-03T13:56:35.141Z,986.89
2019-05-03T13:57:35.230Z,986.79
2019-05-03T13:58:33.063Z,986.82
2019-05-03T13:59:33.170Z,986.84
2019-05-03T14:00:34.602Z,986.80
2019-05-03T14:01:33.343Z,986.78
2019-05-03T14:02:35.346Z,986.89
2019-05-03T14:03:35.204Z,986.77
2019-05-03T14:04:42.772Z,986.79
2019-05-03T14:05:35.208Z,986.75
2019-05-03T14:06:36.558Z,986.77
2019-05-03T14:07:35.373Z,986.75
2019-05-03T14:08:35.023Z,986.72
2019-05-03T14:09:34.793Z,986.74
2019-05-03T14:10:36.010Z,986.72
2019-05-03T14:11:35.340Z,986.76
2019-05-03T14:12:35.053Z,986.69
2019-05-03T14:13:35.396Z,986.67
2019-05-03T14:14:34.966Z,986.70
2019-05-03T14:15:34.928Z,986.79
2019-05-03T14:16:34.749Z,986.70
2019-05-03T14:17:34.849Z,986.73
2019-05-03T14:18:35.296Z,986.71
2019-05-03T14:19:35.039Z,986.69
2019-05-03T14:20:35.202Z,986.71
2019-05-03T14:21:35.232Z,986.75
2019-05-03T14:22:35.747Z,986.71
2019-05-03T14:23:35.415Z,986.78
2019-05-03T14:24:35.514Z,986.79
2019-05-03T14:25:35.609Z,986.79
2019-05-03T14:26:35.707Z,986.74
2019-05-03T14:27:35.802Z,986.74
2019-05-03T14:28:35.897Z,986.72
2019-05-03T14:29:35.987Z,986.72
2019-05-03T14:30:36.089Z,986.77
2019-05-03T14:31:36.178Z,986.84
2019-05-03T14:32:36.291Z,986.78
2019-05-03T14:33:36.384Z,986.74
2019-05-03T14:34:36.486Z,986.77
2019-05-03T14:35:36.576Z,986.73
2019-05-03T14:36:36.680Z,986.67
2019-05-03T14:37:37.864Z,986.61
2019-05-03T14:38:36.864Z,986.63
2019-05-03T14:39:36.955Z,986.66
2019-05-03T14:40:37.047Z,986.72
2019-05-03T14:41:37.190Z,986.59
2019-05-03T14:42:37.269Z,986.61
2019-05-03T14:43:37.368Z,986.58
2019-05-03T14:44:37.470Z,986.56
2019-05-03T14:45:37.565Z,986.55
2019-05-03T14:46:37.665Z,986.54
2019-05-03T14:47:37.757Z,986.57
2019-05-03T14:48:37.849Z,986.59
2019-05-03T14:49:37.946Z,986.56
2019-05-03T14:50:38.034Z,986.53
2019-05-03T14:51:38.130Z,986.49
2019-05-03T14:52:38.238Z,986.56
2019-05-03T14:53:38.353Z,986.55
2019-05-03T14:54:38.420Z,986.45
2019-05-03T14:55:38.506Z,986.49
2019-05-03T14:56:38.600Z,986.51
2019-05-03T14:57:38.699Z,986.53
2019-05-03T14:58:38.794Z,986.52
2019-05-03T14:59:38.917Z,986.53
2019-05-03T15:00:39.011Z,986.49
2019-05-03T15:01:39.130Z,986.52
2019-05-03T15:02:43.638Z,986.52
2019-05-03T15:03:39.334Z,986.53
2019-05-03T15:04:39.430Z,986.50
2019-05-03T15:05:39.524Z,986.48
2019-05-03T15:06:39.627Z,986.50
2019-05-03T15:07:39.722Z,986.47
2019-05-03T15:08:39.815Z,986.42
2019-05-03T15:09:39.916Z,986.47
2019-05-03T15:10:40.009Z,986.47
2019-05-03T15:11:40.097Z,986.49
2019-05-03T15:12:40.191Z,986.49
2019-05-03T15:13:40.287Z,986.48
2019-05-03T15:14:40.384Z,986.53
2019-05-03T15:15:40.486Z,986.44
2019-05-03T15:16:40.573Z,986.46
2019-05-03T15:17:40.667Z,986.39
2019-05-03T15:18:40.764Z,986.36
2019-05-03T15:19:40.874Z,986.34
2019-05-03T15:20:41.273Z,986.34
2019-05-03T15:21:41.036Z,986.39
2019-05-03T15:22:41.145Z,986.44
2019-05-03T15:23:41.228Z,986.43
2019-05-03T15:24:41.326Z,986.47
2019-05-03T15:25:41.420Z,986.44
2019-05-03T15:26:41.515Z,986.49
2019-05-03T15:27:41.618Z,986.49
2019-05-03T15:28:41.705Z,986.47
2019-05-03T15:29:41.803Z,986.44
2019-05-03T15:30:41.909Z,986.39
2019-05-03T15:31:42.028Z,986.37
2019-05-03T15:32:54.727Z,986.39
2019-05-03T15:33:42.196Z,986.40
2019-05-03T15:34:44.529Z,986.38
2019-05-03T15:35:44.527Z,986.36
2019-05-03T15:36:42.483Z,986.39
2019-05-03T15:37:42.583Z,986.39
2019-05-03T15:38:49.842Z,986.32
2019-05-03T15:39:45.000Z,986.36
2019-05-03T15:40:42.911Z,986.44
2019-05-03T15:41:44.876Z,986.40
2019-05-03T15:42:45.068Z,986.41
2019-05-03T15:43:45.188Z,986.44
2019-05-03T15:44:45.026Z,986.40
2019-05-03T15:45:45.038Z,986.41
2019-05-03T15:46:45.015Z,986.46
2019-05-03T15:47:43.589Z,986.41
2019-05-03T15:48:45.706Z,986.53
2019-05-03T15:49:44.797Z,986.52
2019-05-03T15:50:44.655Z,986.46
2019-05-03T15:51:44.627Z,986.41
2019-05-03T15:52:44.477Z,986.44
2019-05-03T15:53:44.455Z,986.43
2019-05-03T15:54:44.522Z,986.39
2019-05-03T15:55:44.352Z,986.45
2019-05-03T15:56:44.925Z,986.41
2019-05-03T15:57:44.742Z,986.38
2019-05-03T15:58:46.816Z,986.39
2019-05-03T15:59:44.732Z,986.31
2019-05-03T16:00:44.861Z,986.31
2019-05-03T16:01:44.923Z,986.29
2019-05-03T16:02:45.016Z,986.25
2019-05-03T16:03:45.110Z,986.27
2019-05-03T16:04:45.210Z,986.28
2019-05-03T16:05:45.301Z,986.25
2019-05-03T16:06:45.395Z,986.27
2019-05-03T16:07:45.489Z,986.29
2019-05-03T16:08:45.582Z,986.28
2019-05-03T16:09:45.678Z,986.29
2019-05-03T16:10:45.844Z,986.25
2019-05-03T16:11:45.872Z,986.27
2019-05-03T16:12:45.966Z,986.30
2019-05-03T16:13:46.065Z,986.30
2019-05-03T16:14:46.153Z,986.29
2019-05-03T16:15:46.250Z,986.34
2019-05-03T16:16:46.344Z,986.29
2019-05-03T16:17:46.439Z,986.32
2019-05-03T16:18:46.534Z,986.26
2019-05-03T16:19:47.722Z,986.26
2019-05-03T16:20:46.722Z,986.21
2019-05-03T16:21:46.820Z,986.21
2019-05-03T16:22:46.910Z,986.25
2019-05-03T16:23:47.005Z,986.25
2019-05-03T16:24:47.183Z,986.19
2019-05-03T16:25:47.197Z,986.18
2019-05-03T16:26:47.285Z,986.20
2019-05-03T16:27:47.398Z,986.19
2019-05-03T16:28:47.476Z,986.12
2019-05-03T16:29:47.568Z,986.13
2019-05-03T16:30:47.674Z,986.15
2019-05-03T16:31:47.760Z,986.12
2019-05-03T16:32:47.856Z,986.05
2019-05-03T16:33:47.950Z,986.09
2019-05-03T16:34:48.042Z,986.11
2019-05-03T16:35:48.133Z,986.13
2019-05-03T16:36:48.227Z,986.11
2019-05-03T16:37:48.325Z,986.11
2019-05-03T16:38:48.419Z,986.11
2019-05-03T16:39:48.514Z,986.13
2019-05-03T16:40:48.609Z,986.12
2019-05-03T16:41:48.703Z,986.18
2019-05-03T16:42:48.797Z,986.14
2019-05-03T16:43:48.891Z,986.11
2019-05-03T16:44:48.989Z,986.06
2019-05-03T16:45:49.083Z,986.10
2019-05-03T16:46:49.178Z,986.09
2019-05-03T16:47:49.273Z,986.14
2019-05-03T16:48:49.365Z,986.06
2019-05-03T16:49:49.462Z,986.07
2019-05-03T16:50:49.555Z,986.11
2019-05-03T16:51:49.646Z,986.09
2019-05-03T16:52:49.745Z,986.05
2019-05-03T16:53:49.848Z,986.08
2019-05-03T16:54:49.936Z,986.09
2019-05-03T16:55:50.030Z,986.05
2019-05-03T16:56:50.126Z,986.11
2019-05-03T16:57:50.216Z,986.05
2019-05-03T16:58:50.314Z,986.04
2019-05-03T16:59:50.409Z,986.03
2019-05-03T17:00:50.501Z,986.03
2019-05-03T17:01:50.597Z,986.00
2019-05-03T17:02:50.687Z,985.98
2019-05-03T17:03:50.781Z,986.01
2019-05-03T17:04:50.874Z,986.05
2019-05-03T17:05:50.969Z,986.03
2019-05-03T17:06:51.060Z,986.00
2019-05-03T17:07:51.153Z,986.06
2019-05-03T17:08:51.246Z,986.06
2019-05-03T17:09:51.341Z,986.01
2019-05-03T17:10:51.433Z,986.10
2019-05-03T17:11:51.530Z,986.05
2019-05-03T17:12:51.623Z,986.06
2019-05-03T17:13:51.718Z,986.04
2019-05-03T17:14:51.813Z,986.05
2019-05-03T17:15:51.904Z,986.01
2019-05-03T17:16:52.002Z,986.01
2019-05-03T17:17:52.096Z,986.01
2019-05-03T17:18:52.194Z,985.97
2019-05-03T17:19:52.286Z,985.97
2019-05-03T17:20:52.380Z,985.99
2019-05-03T17:21:52.477Z,985.98
2019-05-03T17:22:52.574Z,986.02
2019-05-03T17:23:52.659Z,986.02
2019-05-03T17:24:52.753Z,986.01
2019-05-03T17:25:52.846Z,985.96
2019-05-03T17:26:52.941Z,985.93
2019-05-03T17:27:54.277Z,985.98
2019-05-03T17:28:55.223Z,985.96
2019-05-03T17:29:55.187Z,985.95
2019-05-03T17:30:55.192Z,985.98
2019-05-03T17:31:55.042Z,985.99
2019-05-03T17:32:55.090Z,986.00
2019-05-03T17:33:56.164Z,985.99
2019-05-03T17:34:54.892Z,985.99
2019-05-03T17:35:54.467Z,985.98
2019-05-03T17:36:54.494Z,986.02
2019-05-03T17:37:54.609Z,985.98
2019-05-03T17:38:55.129Z,986.04
2019-05-03T17:39:54.731Z,986.02
2019-05-03T17:40:54.930Z,986.04
2019-05-03T17:41:54.700Z,986.07
2019-05-03T17:42:54.791Z,986.04
2019-05-03T17:43:54.617Z,986.10
2019-05-03T17:44:54.663Z,986.12
2019-05-03T17:45:55.080Z,986.04
2019-05-03T17:46:54.951Z,986.06
2019-05-03T17:47:54.975Z,986.06
2019-05-03T17:48:55.013Z,986.04
2019-05-03T17:49:55.107Z,986.06
2019-05-03T17:50:55.231Z,986.09
2019-05-03T17:51:55.515Z,986.05
2019-05-03T17:52:55.389Z,986.00
2019-05-03T17:53:55.488Z,986.02
2019-05-03T17:54:55.577Z,986.02
2019-05-03T17:55:55.682Z,986.02
2019-05-03T17:56:55.759Z,986.02
2019-05-03T17:57:55.857Z,985.99
2019-05-03T17:58:55.948Z,985.99
2019-05-03T17:59:56.040Z,985.98
2019-05-03T18:00:56.251Z,985.96
2019-05-03T18:01:56.223Z,985.97
2019-05-03T18:02:56.318Z,986.02
2019-05-03T18:04:05.642Z,986.00
2019-05-03T18:04:56.508Z,986.01
2019-05-03T18:05:56.606Z,986.03